sensor_id;sensor_type;location;lat;lon;timestamp;P1;durP1;ratioP1;P2;durP2;ratioP2
46318;SDS011;32042;50.916;2.926;2022-07-10T00:00:37;6.47;;;3.43;;
46318;SDS011;32042;50.916;2.926;2022-07-10T00:03:03;6.13;;;2.90;;
46318;SDS011;32042;50.916;2.926;2022-07-10T00:05:31;4.10;;;2.77;;
46318;SDS011;32042;50.916;2.926;2022-07-10T00:07:59;6.50;;;3.23;;
46318;SDS011;32042;50.916;2.926;2022-07-10T00:10:26;5.30;;;3.23;;
46318;SDS011;32042;50.916;2.926;2022-07-10T00:12:53;4.30;;;3.90;;
46318;SDS011;32042;50.916;2.926;2022-07-10T00:15:19;6.37;;;4.43;;
46318;SDS011;32042;50.916;2.926;2022-07-10T00:17:45;7.23;;;4.10;;
46318;SDS011;32042;50.916;2.926;2022-07-10T00:20:11;5.00;;;4.20;;
46318;SDS011;32042;50.916;2.926;2022-07-10T00:22:38;11.30;;;4.63;;
46318;SDS011;32042;50.916;2.926;2022-07-10T00:25:04;8.00;;;4.87;;
46318;SDS011;32042;50.916;2.926;2022-07-10T00:27:31;4.73;;;4.07;;
46318;SDS011;32042;50.916;2.926;2022-07-10T00:29:57;5.33;;;4.27;;
46318;SDS011;32042;50.916;2.926;2022-07-10T00:32:23;7.40;;;4.30;;
46318;SDS011;32042;50.916;2.926;2022-07-10T00:34:49;7.73;;;5.60;;
46318;SDS011;32042;50.916;2.926;2022-07-10T00:37:15;6.97;;;5.00;;
46318;SDS011;32042;50.916;2.926;2022-07-10T00:39:41;6.67;;;4.87;;
46318;SDS011;32042;50.916;2.926;2022-07-10T00:42:07;7.50;;;4.77;;
46318;SDS011;32042;50.916;2.926;2022-07-10T00:44:38;4.97;;;4.43;;
46318;SDS011;32042;50.916;2.926;2022-07-10T00:47:05;7.23;;;4.30;;
46318;SDS011;32042;50.916;2.926;2022-07-10T00:49:33;7.00;;;4.43;;
46318;SDS011;32042;50.916;2.926;2022-07-10T00:52:00;7.73;;;4.93;;
46318;SDS011;32042;50.916;2.926;2022-07-10T00:54:28;8.73;;;5.20;;
46318;SDS011;32042;50.916;2.926;2022-07-10T00:56:56;9.13;;;5.00;;
46318;SDS011;32042;50.916;2.926;2022-07-10T00:59:22;9.97;;;5.13;;
46318;SDS011;32042;50.916;2.926;2022-07-10T01:01:50;5.43;;;4.90;;
46318;SDS011;32042;50.916;2.926;2022-07-10T01:04:16;9.70;;;4.97;;
46318;SDS011;32042;50.916;2.926;2022-07-10T01:06:42;10.03;;;5.77;;
46318;SDS011;32042;50.916;2.926;2022-07-10T01:09:08;5.93;;;4.77;;
46318;SDS011;32042;50.916;2.926;2022-07-10T01:11:34;6.03;;;4.40;;
46318;SDS011;32042;50.916;2.926;2022-07-10T01:14:01;5.63;;;4.27;;
46318;SDS011;32042;50.916;2.926;2022-07-10T01:16:28;5.27;;;4.77;;
46318;SDS011;32042;50.916;2.926;2022-07-10T01:18:54;4.73;;;4.23;;
46318;SDS011;32042;50.916;2.926;2022-07-10T01:21:24;9.17;;;5.40;;
46318;SDS011;32042;50.916;2.926;2022-07-10T01:23:50;7.77;;;5.07;;
46318;SDS011;32042;50.916;2.926;2022-07-10T01:26:16;5.53;;;4.90;;
46318;SDS011;32042;50.916;2.926;2022-07-10T01:28:42;7.60;;;5.13;;
46318;SDS011;32042;50.916;2.926;2022-07-10T01:31:08;8.17;;;5.57;;
46318;SDS011;32042;50.916;2.926;2022-07-10T01:33:34;5.97;;;5.27;;
46318;SDS011;32042;50.916;2.926;2022-07-10T01:36:00;7.87;;;4.73;;
46318;SDS011;32042;50.916;2.926;2022-07-10T01:38:25;5.33;;;4.80;;
46318;SDS011;32042;50.916;2.926;2022-07-10T01:40:51;8.17;;;5.33;;
46318;SDS011;32042;50.916;2.926;2022-07-10T01:43:17;5.77;;;5.17;;
46318;SDS011;32042;50.916;2.926;2022-07-10T01:45:42;6.90;;;5.20;;
46318;SDS011;32042;50.916;2.926;2022-07-10T01:48:09;7.33;;;5.10;;
46318;SDS011;32042;50.916;2.926;2022-07-10T01:50:35;7.63;;;5.03;;
46318;SDS011;32042;50.916;2.926;2022-07-10T01:53:00;5.40;;;4.90;;
46318;SDS011;32042;50.916;2.926;2022-07-10T01:55:26;6.07;;;5.50;;
46318;SDS011;32042;50.916;2.926;2022-07-10T01:57:52;5.87;;;4.57;;
46318;SDS011;32042;50.916;2.926;2022-07-10T02:00:18;9.70;;;5.37;;
46318;SDS011;32042;50.916;2.926;2022-07-10T02:02:44;7.70;;;5.17;;
46318;SDS011;32042;50.916;2.926;2022-07-10T02:05:29;7.37;;;5.13;;
46318;SDS011;32042;50.916;2.926;2022-07-10T02:07:55;7.90;;;5.20;;
46318;SDS011;32042;50.916;2.926;2022-07-10T02:10:21;5.77;;;4.83;;
46318;SDS011;32042;50.916;2.926;2022-07-10T02:12:47;6.90;;;4.77;;
46318;SDS011;32042;50.916;2.926;2022-07-10T02:15:12;8.47;;;4.63;;
46318;SDS011;32042;50.916;2.926;2022-07-10T02:17:38;5.70;;;5.03;;
46318;SDS011;32042;50.916;2.926;2022-07-10T02:20:04;8.17;;;5.23;;
46318;SDS011;32042;50.916;2.926;2022-07-10T02:22:30;7.60;;;5.03;;
46318;SDS011;32042;50.916;2.926;2022-07-10T02:24:56;6.40;;;4.70;;
46318;SDS011;32042;50.916;2.926;2022-07-10T02:27:21;7.83;;;4.73;;
46318;SDS011;32042;50.916;2.926;2022-07-10T02:29:47;5.40;;;4.90;;
46318;SDS011;32042;50.916;2.926;2022-07-10T02:32:13;7.33;;;4.67;;
46318;SDS011;32042;50.916;2.926;2022-07-10T02:34:40;8.30;;;5.13;;
46318;SDS011;32042;50.916;2.926;2022-07-10T02:37:07;7.97;;;5.63;;
46318;SDS011;32042;50.916;2.926;2022-07-10T02:39:34;5.63;;;5.03;;
46318;SDS011;32042;50.916;2.926;2022-07-10T02:41:59;7.17;;;5.20;;
46318;SDS011;32042;50.916;2.926;2022-07-10T02:44:27;5.57;;;5.07;;
46318;SDS011;32042;50.916;2.926;2022-07-10T02:46:55;5.20;;;4.70;;
46318;SDS011;32042;50.916;2.926;2022-07-10T02:49:22;9.50;;;5.27;;
46318;SDS011;32042;50.916;2.926;2022-07-10T02:51:48;5.97;;;5.03;;
46318;SDS011;32042;50.916;2.926;2022-07-10T02:54:15;6.60;;;5.13;;
46318;SDS011;32042;50.916;2.926;2022-07-10T02:56:41;5.40;;;4.90;;
46318;SDS011;32042;50.916;2.926;2022-07-10T02:59:07;11.03;;;5.30;;
46318;SDS011;32042;50.916;2.926;2022-07-10T03:01:33;5.50;;;5.00;;
46318;SDS011;32042;50.916;2.926;2022-07-10T03:03:58;8.60;;;5.60;;
46318;SDS011;32042;50.916;2.926;2022-07-10T03:06:26;8.33;;;5.67;;
46318;SDS011;32042;50.916;2.926;2022-07-10T03:08:52;7.07;;;5.77;;
46318;SDS011;32042;50.916;2.926;2022-07-10T03:11:18;6.47;;;5.60;;
46318;SDS011;32042;50.916;2.926;2022-07-10T03:13:43;5.80;;;5.10;;
46318;SDS011;32042;50.916;2.926;2022-07-10T03:16:09;7.93;;;6.20;;
46318;SDS011;32042;50.916;2.926;2022-07-10T03:18:35;5.67;;;5.13;;
46318;SDS011;32042;50.916;2.926;2022-07-10T03:21:00;6.60;;;5.50;;
46318;SDS011;32042;50.916;2.926;2022-07-10T03:23:26;6.90;;;5.93;;
46318;SDS011;32042;50.916;2.926;2022-07-10T03:25:52;6.03;;;5.43;;
46318;SDS011;32042;50.916;2.926;2022-07-10T03:28:18;6.87;;;5.63;;
46318;SDS011;32042;50.916;2.926;2022-07-10T03:30:43;6.13;;;4.87;;
46318;SDS011;32042;50.916;2.926;2022-07-10T03:33:09;5.90;;;5.07;;
46318;SDS011;32042;50.916;2.926;2022-07-10T03:35:35;6.33;;;5.20;;
46318;SDS011;32042;50.916;2.926;2022-07-10T03:38:00;8.37;;;6.23;;
46318;SDS011;32042;50.916;2.926;2022-07-10T03:40:27;6.17;;;5.27;;
46318;SDS011;32042;50.916;2.926;2022-07-10T03:42:53;9.70;;;6.37;;
46318;SDS011;32042;50.916;2.926;2022-07-10T03:45:18;8.27;;;6.20;;
46318;SDS011;32042;50.916;2.926;2022-07-10T03:47:44;13.07;;;6.60;;
46318;SDS011;32042;50.916;2.926;2022-07-10T03:50:10;10.10;;;5.97;;
46318;SDS011;32042;50.916;2.926;2022-07-10T03:52:35;10.70;;;6.20;;
46318;SDS011;32042;50.916;2.926;2022-07-10T03:55:02;10.67;;;6.77;;
46318;SDS011;32042;50.916;2.926;2022-07-10T03:57:28;9.17;;;6.17;;
46318;SDS011;32042;50.916;2.926;2022-07-10T04:00:12;11.93;;;6.13;;
46318;SDS011;32042;50.916;2.926;2022-07-10T04:02:38;7.43;;;5.67;;
46318;SDS011;32042;50.916;2.926;2022-07-10T04:05:08;10.03;;;5.97;;
46318;SDS011;32042;50.916;2.926;2022-07-10T04:07:34;7.77;;;5.27;;
46318;SDS011;32042;50.916;2.926;2022-07-10T04:10:01;5.37;;;4.97;;
46318;SDS011;32042;50.916;2.926;2022-07-10T04:12:27;6.30;;;5.13;;
46318;SDS011;32042;50.916;2.926;2022-07-10T04:14:53;8.33;;;5.53;;
46318;SDS011;32042;50.916;2.926;2022-07-10T04:17:20;7.07;;;5.40;;
46318;SDS011;32042;50.916;2.926;2022-07-10T04:19:45;11.43;;;6.20;;
46318;SDS011;32042;50.916;2.926;2022-07-10T04:22:11;6.30;;;5.70;;
46318;SDS011;32042;50.916;2.926;2022-07-10T04:24:38;6.93;;;5.53;;
46318;SDS011;32042;50.916;2.926;2022-07-10T04:27:03;6.97;;;6.27;;
46318;SDS011;32042;50.916;2.926;2022-07-10T04:29:29;8.07;;;6.17;;
46318;SDS011;32042;50.916;2.926;2022-07-10T04:31:56;7.77;;;6.03;;
46318;SDS011;32042;50.916;2.926;2022-07-10T04:34:22;8.20;;;5.70;;
46318;SDS011;32042;50.916;2.926;2022-07-10T04:36:47;8.97;;;5.90;;
46318;SDS011;32042;50.916;2.926;2022-07-10T04:39:13;13.47;;;8.23;;
46318;SDS011;32042;50.916;2.926;2022-07-10T04:41:39;9.60;;;7.70;;
46318;SDS011;32042;50.916;2.926;2022-07-10T04:44:05;10.43;;;8.43;;
46318;SDS011;32042;50.916;2.926;2022-07-10T04:46:31;9.60;;;8.60;;
46318;SDS011;32042;50.916;2.926;2022-07-10T04:48:56;9.07;;;7.13;;
46318;SDS011;32042;50.916;2.926;2022-07-10T04:51:22;8.77;;;7.90;;
46318;SDS011;32042;50.916;2.926;2022-07-10T04:53:48;12.17;;;8.83;;
46318;SDS011;32042;50.916;2.926;2022-07-10T04:56:14;13.30;;;7.93;;
46318;SDS011;32042;50.916;2.926;2022-07-10T04:58:40;12.47;;;8.77;;
46318;SDS011;32042;50.916;2.926;2022-07-10T05:01:06;13.33;;;8.30;;
46318;SDS011;32042;50.916;2.926;2022-07-10T05:03:31;15.93;;;9.10;;
46318;SDS011;32042;50.916;2.926;2022-07-10T05:05:57;11.83;;;9.47;;
46318;SDS011;32042;50.916;2.926;2022-07-10T05:08:23;9.13;;;7.87;;
46318;SDS011;32042;50.916;2.926;2022-07-10T05:10:49;10.53;;;8.17;;
46318;SDS011;32042;50.916;2.926;2022-07-10T05:13:14;12.00;;;8.27;;
46318;SDS011;32042;50.916;2.926;2022-07-10T05:15:40;9.70;;;8.33;;
46318;SDS011;32042;50.916;2.926;2022-07-10T05:18:06;12.00;;;9.53;;
46318;SDS011;32042;50.916;2.926;2022-07-10T05:20:31;16.60;;;8.67;;
46318;SDS011;32042;50.916;2.926;2022-07-10T05:22:58;12.47;;;10.43;;
46318;SDS011;32042;50.916;2.926;2022-07-10T05:25:24;12.20;;;10.43;;
46318;SDS011;32042;50.916;2.926;2022-07-10T05:27:51;10.43;;;8.90;;
46318;SDS011;32042;50.916;2.926;2022-07-10T05:30:17;11.10;;;8.17;;
46318;SDS011;32042;50.916;2.926;2022-07-10T05:32:43;13.33;;;8.93;;
46318;SDS011;32042;50.916;2.926;2022-07-10T05:35:10;9.07;;;7.40;;
46318;SDS011;32042;50.916;2.926;2022-07-10T05:37:40;11.67;;;8.70;;
46318;SDS011;32042;50.916;2.926;2022-07-10T05:40:06;9.93;;;8.30;;
46318;SDS011;32042;50.916;2.926;2022-07-10T05:42:33;12.63;;;8.13;;
46318;SDS011;32042;50.916;2.926;2022-07-10T05:44:59;14.73;;;9.80;;
46318;SDS011;32042;50.916;2.926;2022-07-10T05:47:25;12.23;;;9.40;;
46318;SDS011;32042;50.916;2.926;2022-07-10T05:49:50;11.67;;;9.00;;
46318;SDS011;32042;50.916;2.926;2022-07-10T05:52:16;12.27;;;9.70;;
46318;SDS011;32042;50.916;2.926;2022-07-10T05:54:42;12.83;;;10.30;;
46318;SDS011;32042;50.916;2.926;2022-07-10T05:57:08;12.87;;;10.00;;
46318;SDS011;32042;50.916;2.926;2022-07-10T05:59:34;9.87;;;8.87;;
46318;SDS011;32042;50.916;2.926;2022-07-10T06:02:00;12.23;;;9.83;;
46318;SDS011;32042;50.916;2.926;2022-07-10T06:04:27;10.53;;;9.20;;
46318;SDS011;32042;50.916;2.926;2022-07-10T06:06:54;8.97;;;8.17;;
46318;SDS011;32042;50.916;2.926;2022-07-10T06:09:20;11.03;;;7.50;;
46318;SDS011;32042;50.916;2.926;2022-07-10T06:11:45;10.37;;;7.77;;
46318;SDS011;32042;50.916;2.926;2022-07-10T06:14:13;10.23;;;7.57;;
46318;SDS011;32042;50.916;2.926;2022-07-10T06:16:39;10.47;;;7.27;;
46318;SDS011;32042;50.916;2.926;2022-07-10T06:19:05;11.83;;;7.17;;
46318;SDS011;32042;50.916;2.926;2022-07-10T06:21:31;7.03;;;6.33;;
46318;SDS011;32042;50.916;2.926;2022-07-10T06:23:57;9.83;;;6.80;;
46318;SDS011;32042;50.916;2.926;2022-07-10T06:26:22;7.60;;;6.77;;
46318;SDS011;32042;50.916;2.926;2022-07-10T06:28:48;8.27;;;6.90;;
46318;SDS011;32042;50.916;2.926;2022-07-10T06:31:14;13.97;;;6.70;;
46318;SDS011;32042;50.916;2.926;2022-07-10T06:33:39;8.20;;;6.03;;
46318;SDS011;32042;50.916;2.926;2022-07-10T06:36:05;6.83;;;5.63;;
46318;SDS011;32042;50.916;2.926;2022-07-10T06:38:31;8.77;;;5.10;;
46318;SDS011;32042;50.916;2.926;2022-07-10T06:40:57;5.57;;;4.10;;
46318;SDS011;32042;50.916;2.926;2022-07-10T06:43:23;6.80;;;4.03;;
46318;SDS011;32042;50.916;2.926;2022-07-10T06:45:48;10.23;;;4.80;;
46318;SDS011;32042;50.916;2.926;2022-07-10T06:48:14;10.57;;;3.70;;
46318;SDS011;32042;50.916;2.926;2022-07-10T06:50:40;5.03;;;4.53;;
46318;SDS011;32042;50.916;2.926;2022-07-10T06:53:06;5.45;;;4.10;;
46318;SDS011;32042;50.916;2.926;2022-07-10T06:55:33;7.13;;;3.60;;
46318;SDS011;32042;50.916;2.926;2022-07-10T06:58:00;6.82;;;4.47;;
46318;SDS011;32042;50.916;2.926;2022-07-10T07:00:27;8.38;;;4.28;;
46318;SDS011;32042;50.916;2.926;2022-07-10T07:02:53;4.70;;;4.10;;
46318;SDS011;32042;50.916;2.926;2022-07-10T07:05:19;6.15;;;4.30;;
46318;SDS011;32042;50.916;2.926;2022-07-10T07:07:45;4.95;;;3.90;;
46318;SDS011;32042;50.916;2.926;2022-07-10T07:10:11;5.95;;;3.88;;
46318;SDS011;32042;50.916;2.926;2022-07-10T07:12:37;6.32;;;3.58;;
46318;SDS011;32042;50.916;2.926;2022-07-10T07:15:03;5.38;;;3.42;;
46318;SDS011;32042;50.916;2.926;2022-07-10T07:17:31;6.95;;;3.45;;
46318;SDS011;32042;50.916;2.926;2022-07-10T07:20:01;7.10;;;3.75;;
46318;SDS011;32042;50.916;2.926;2022-07-10T07:22:46;3.55;;;2.78;;
46318;SDS011;32042;50.916;2.926;2022-07-10T07:25:30;4.88;;;2.85;;
46318;SDS011;32042;50.916;2.926;2022-07-10T07:27:56;9.70;;;3.40;;
46318;SDS011;32042;50.916;2.926;2022-07-10T07:30:21;6.78;;;3.50;;
46318;SDS011;32042;50.916;2.926;2022-07-10T07:32:47;5.55;;;4.07;;
46318;SDS011;32042;50.916;2.926;2022-07-10T07:35:14;5.07;;;3.40;;
46318;SDS011;32042;50.916;2.926;2022-07-10T07:37:41;5.68;;;3.30;;
46318;SDS011;32042;50.916;2.926;2022-07-10T07:40:09;5.00;;;3.25;;
46318;SDS011;32042;50.916;2.926;2022-07-10T07:42:37;3.60;;;3.30;;
46318;SDS011;32042;50.916;2.926;2022-07-10T07:45:03;7.00;;;3.70;;
46318;SDS011;32042;50.916;2.926;2022-07-10T07:47:30;4.07;;;2.70;;
46318;SDS011;32042;50.916;2.926;2022-07-10T07:49:56;5.20;;;2.30;;
46318;SDS011;32042;50.916;2.926;2022-07-10T07:52:27;3.38;;;2.65;;
46318;SDS011;32042;50.916;2.926;2022-07-10T07:54:53;3.75;;;2.55;;
46318;SDS011;32042;50.916;2.926;2022-07-10T07:57:18;3.30;;;2.20;;
46318;SDS011;32042;50.916;2.926;2022-07-10T07:59:44;4.65;;;2.42;;
46318;SDS011;32042;50.916;2.926;2022-07-10T08:02:10;4.57;;;2.92;;
46318;SDS011;32042;50.916;2.926;2022-07-10T08:04:36;4.03;;;2.13;;
46318;SDS011;32042;50.916;2.926;2022-07-10T08:07:01;3.67;;;2.38;;
46318;SDS011;32042;50.916;2.926;2022-07-10T08:09:27;3.75;;;2.38;;
46318;SDS011;32042;50.916;2.926;2022-07-10T08:11:53;3.63;;;2.70;;
46318;SDS011;32042;50.916;2.926;2022-07-10T08:14:18;3.47;;;2.40;;
46318;SDS011;32042;50.916;2.926;2022-07-10T08:16:44;4.80;;;2.90;;
46318;SDS011;32042;50.916;2.926;2022-07-10T08:19:10;3.90;;;2.40;;
46318;SDS011;32042;50.916;2.926;2022-07-10T08:21:35;5.35;;;3.00;;
46318;SDS011;32042;50.916;2.926;2022-07-10T08:24:01;8.18;;;2.92;;
46318;SDS011;32042;50.916;2.926;2022-07-10T08:26:27;5.43;;;2.97;;
46318;SDS011;32042;50.916;2.926;2022-07-10T08:28:52;6.18;;;3.10;;
46318;SDS011;32042;50.916;2.926;2022-07-10T08:31:18;2.65;;;2.13;;
46318;SDS011;32042;50.916;2.926;2022-07-10T08:33:44;4.57;;;2.08;;
46318;SDS011;32042;50.916;2.926;2022-07-10T08:36:10;4.00;;;2.25;;
46318;SDS011;32042;50.916;2.926;2022-07-10T08:38:36;5.68;;;2.05;;
46318;SDS011;32042;50.916;2.926;2022-07-10T08:41:03;2.35;;;2.00;;
46318;SDS011;32042;50.916;2.926;2022-07-10T08:43:31;8.07;;;2.13;;
46318;SDS011;32042;50.916;2.926;2022-07-10T08:45:57;3.22;;;1.88;;
46318;SDS011;32042;50.916;2.926;2022-07-10T08:48:24;3.45;;;1.98;;
46318;SDS011;32042;50.916;2.926;2022-07-10T08:50:53;2.80;;;1.60;;
46318;SDS011;32042;50.916;2.926;2022-07-10T08:53:28;4.03;;;1.83;;
46318;SDS011;32042;50.916;2.926;2022-07-10T08:55:55;4.28;;;1.95;;
46318;SDS011;32042;50.916;2.926;2022-07-10T08:58:21;3.88;;;1.55;;
46318;SDS011;32042;50.916;2.926;2022-07-10T09:00:48;3.78;;;1.98;;
46318;SDS011;32042;50.916;2.926;2022-07-10T09:03:13;2.08;;;1.50;;
46318;SDS011;32042;50.916;2.926;2022-07-10T09:05:39;2.47;;;1.52;;
46318;SDS011;32042;50.916;2.926;2022-07-10T09:08:20;4.40;;;1.70;;
46318;SDS011;32042;50.916;2.926;2022-07-10T09:10:52;3.47;;;1.52;;
46318;SDS011;32042;50.916;2.926;2022-07-10T09:13:17;4.63;;;1.92;;
46318;SDS011;32042;50.916;2.926;2022-07-10T09:15:48;2.65;;;1.80;;
46318;SDS011;32042;50.916;2.926;2022-07-10T09:18:17;2.60;;;1.40;;
46318;SDS011;32042;50.916;2.926;2022-07-10T09:20:47;3.60;;;1.67;;
46318;SDS011;32042;50.916;2.926;2022-07-10T09:25:45;3.38;;;1.90;;
46318;SDS011;32042;50.916;2.926;2022-07-10T09:28:13;3.10;;;2.40;;
46318;SDS011;32042;50.916;2.926;2022-07-10T09:30:40;7.22;;;3.25;;
46318;SDS011;32042;50.916;2.926;2022-07-10T09:38:51;3.35;;;2.50;;
46318;SDS011;32042;50.916;2.926;2022-07-10T09:41:29;2.30;;;2.10;;
46318;SDS011;32042;50.916;2.926;2022-07-10T09:44:00;4.68;;;2.05;;
46318;SDS011;32042;50.916;2.926;2022-07-10T09:46:30;4.25;;;1.83;;
46318;SDS011;32042;50.916;2.926;2022-07-10T09:49:10;2.50;;;2.05;;
46318;SDS011;32042;50.916;2.926;2022-07-10T09:51:41;4.13;;;1.90;;
46318;SDS011;32042;50.916;2.926;2022-07-10T09:54:09;4.55;;;1.67;;
46318;SDS011;32042;50.916;2.926;2022-07-10T09:56:39;4.97;;;1.40;;
46318;SDS011;32042;50.916;2.926;2022-07-10T09:59:08;5.60;;;1.73;;
46318;SDS011;32042;50.916;2.926;2022-07-10T10:01:48;3.63;;;1.30;;
46318;SDS011;32042;50.916;2.926;2022-07-10T10:04:16;3.95;;;1.42;;
46318;SDS011;32042;50.916;2.926;2022-07-10T10:06:45;3.10;;;1.50;;
46318;SDS011;32042;50.916;2.926;2022-07-10T10:12:44;2.42;;;1.50;;
46318;SDS011;32042;50.916;2.926;2022-07-10T10:15:11;1.50;;;1.35;;
46318;SDS011;32042;50.916;2.926;2022-07-10T10:17:38;2.25;;;1.33;;
46318;SDS011;32042;50.916;2.926;2022-07-10T10:20:06;1.88;;;1.23;;
46318;SDS011;32042;50.916;2.926;2022-07-10T10:22:52;3.28;;;1.60;;
46318;SDS011;32042;50.916;2.926;2022-07-10T10:25:20;5.53;;;1.65;;
46318;SDS011;32042;50.916;2.926;2022-07-10T10:27:48;2.95;;;1.48;;
46318;SDS011;32042;50.916;2.926;2022-07-10T10:30:16;2.85;;;1.50;;
46318;SDS011;32042;50.916;2.926;2022-07-10T10:32:42;7.00;;;1.48;;
46318;SDS011;32042;50.916;2.926;2022-07-10T10:35:08;1.90;;;1.27;;
46318;SDS011;32042;50.916;2.926;2022-07-10T10:37:40;2.67;;;1.38;;
46318;SDS011;32042;50.916;2.926;2022-07-10T10:40:09;2.85;;;1.42;;
46318;SDS011;32042;50.916;2.926;2022-07-10T10:45:23;3.35;;;1.55;;
46318;SDS011;32042;50.916;2.926;2022-07-10T10:50:36;3.05;;;1.60;;
46318;SDS011;32042;50.916;2.926;2022-07-10T10:58:28;3.17;;;1.33;;
46318;SDS011;32042;50.916;2.926;2022-07-10T11:06:43;3.45;;;1.35;;
46318;SDS011;32042;50.916;2.926;2022-07-10T11:14:33;3.17;;;1.33;;
46318;SDS011;32042;50.916;2.926;2022-07-10T11:17:01;2.63;;;1.38;;
46318;SDS011;32042;50.916;2.926;2022-07-10T11:19:28;3.08;;;1.30;;
46318;SDS011;32042;50.916;2.926;2022-07-10T11:30:11;1.55;;;0.98;;
46318;SDS011;32042;50.916;2.926;2022-07-10T11:32:37;1.77;;;1.00;;
46318;SDS011;32042;50.916;2.926;2022-07-10T11:35:05;2.83;;;1.20;;
46318;SDS011;32042;50.916;2.926;2022-07-10T11:37:33;2.17;;;1.30;;
46318;SDS011;32042;50.916;2.926;2022-07-10T11:40:08;5.10;;;1.60;;
46318;SDS011;32042;50.916;2.926;2022-07-10T11:42:51;2.53;;;1.30;;
46318;SDS011;32042;50.916;2.926;2022-07-10T11:45:30;2.50;;;1.00;;
46318;SDS011;32042;50.916;2.926;2022-07-10T11:47:57;3.72;;;0.90;;
46318;SDS011;32042;50.916;2.926;2022-07-10T11:50:24;1.80;;;0.93;;
46318;SDS011;32042;50.916;2.926;2022-07-10T11:52:51;2.05;;;1.08;;
46318;SDS011;32042;50.916;2.926;2022-07-10T11:55:19;4.05;;;1.10;;
46318;SDS011;32042;50.916;2.926;2022-07-10T11:57:51;2.13;;;1.00;;
46318;SDS011;32042;50.916;2.926;2022-07-10T12:00:29;2.40;;;1.38;;
46318;SDS011;32042;50.916;2.926;2022-07-10T12:02:56;2.53;;;0.90;;
46318;SDS011;32042;50.916;2.926;2022-07-10T12:05:41;3.38;;;0.95;;
46318;SDS011;32042;50.916;2.926;2022-07-10T12:08:06;2.78;;;1.27;;
46318;SDS011;32042;50.916;2.926;2022-07-10T12:10:33;2.33;;;1.00;;
46318;SDS011;32042;50.916;2.926;2022-07-10T12:13:04;2.70;;;1.08;;
46318;SDS011;32042;50.916;2.926;2022-07-10T12:15:33;1.63;;;0.90;;
46318;SDS011;32042;50.916;2.926;2022-07-10T12:18:00;2.22;;;0.80;;
46318;SDS011;32042;50.916;2.926;2022-07-10T12:20:26;2.55;;;1.10;;
46318;SDS011;32042;50.916;2.926;2022-07-10T12:22:52;3.05;;;1.00;;
46318;SDS011;32042;50.916;2.926;2022-07-10T12:25:21;2.30;;;1.15;;
46318;SDS011;32042;50.916;2.926;2022-07-10T12:27:47;2.75;;;1.08;;
46318;SDS011;32042;50.916;2.926;2022-07-10T12:30:12;2.50;;;0.98;;
46318;SDS011;32042;50.916;2.926;2022-07-10T12:32:38;4.18;;;1.20;;
46318;SDS011;32042;50.916;2.926;2022-07-10T12:35:04;3.28;;;1.55;;
46318;SDS011;32042;50.916;2.926;2022-07-10T12:37:36;3.25;;;1.17;;
46318;SDS011;32042;50.916;2.926;2022-07-10T12:40:31;2.60;;;1.05;;
46318;SDS011;32042;50.916;2.926;2022-07-10T12:43:01;3.90;;;1.10;;
46318;SDS011;32042;50.916;2.926;2022-07-10T12:45:28;3.10;;;1.20;;
46318;SDS011;32042;50.916;2.926;2022-07-10T12:47:54;4.15;;;1.13;;
46318;SDS011;32042;50.916;2.926;2022-07-10T12:50:19;2.97;;;1.10;;
46318;SDS011;32042;50.916;2.926;2022-07-10T12:52:46;2.38;;;0.80;;
46318;SDS011;32042;50.916;2.926;2022-07-10T12:55:18;2.38;;;0.85;;
46318;SDS011;32042;50.916;2.926;2022-07-10T13:00:13;4.35;;;0.80;;
46318;SDS011;32042;50.916;2.926;2022-07-10T13:02:39;1.35;;;0.80;;
46318;SDS011;32042;50.916;2.926;2022-07-10T13:05:06;2.33;;;1.20;;
46318;SDS011;32042;50.916;2.926;2022-07-10T13:07:33;2.92;;;1.23;;
46318;SDS011;32042;50.916;2.926;2022-07-10T13:10:04;1.95;;;0.95;;
46318;SDS011;32042;50.916;2.926;2022-07-10T13:12:32;2.33;;;1.38;;
46318;SDS011;32042;50.916;2.926;2022-07-10T13:14:58;1.75;;;1.27;;
46318;SDS011;32042;50.916;2.926;2022-07-10T13:17:24;2.88;;;1.20;;
46318;SDS011;32042;50.916;2.926;2022-07-10T13:19:50;1.55;;;0.90;;
46318;SDS011;32042;50.916;2.926;2022-07-10T13:22:16;1.27;;;0.82;;
46318;SDS011;32042;50.916;2.926;2022-07-10T13:24:42;1.98;;;0.90;;
46318;SDS011;32042;50.916;2.926;2022-07-10T13:27:08;2.65;;;0.98;;
46318;SDS011;32042;50.916;2.926;2022-07-10T13:29:34;1.80;;;0.75;;
46318;SDS011;32042;50.916;2.926;2022-07-10T13:31:59;2.03;;;0.95;;
46318;SDS011;32042;50.916;2.926;2022-07-10T13:34:25;2.03;;;0.95;;
46318;SDS011;32042;50.916;2.926;2022-07-10T13:36:51;3.53;;;0.98;;
46318;SDS011;32042;50.916;2.926;2022-07-10T13:39:19;4.55;;;1.30;;
46318;SDS011;32042;50.916;2.926;2022-07-10T13:41:44;3.25;;;0.70;;
46318;SDS011;32042;50.916;2.926;2022-07-10T13:44:10;2.42;;;1.17;;
46318;SDS011;32042;50.916;2.926;2022-07-10T13:46:36;2.55;;;1.00;;
46318;SDS011;32042;50.916;2.926;2022-07-10T13:49:04;1.40;;;0.85;;
46318;SDS011;32042;50.916;2.926;2022-07-10T13:51:31;1.10;;;0.80;;
46318;SDS011;32042;50.916;2.926;2022-07-10T13:53:56;1.30;;;0.70;;
46318;SDS011;32042;50.916;2.926;2022-07-10T13:56:22;2.00;;;1.05;;
46318;SDS011;32042;50.916;2.926;2022-07-10T13:58:50;1.60;;;0.70;;
46318;SDS011;32042;50.916;2.926;2022-07-10T14:01:16;2.90;;;0.90;;
46318;SDS011;32042;50.916;2.926;2022-07-10T14:03:42;2.80;;;0.90;;
46318;SDS011;32042;50.916;2.926;2022-07-10T14:06:08;1.08;;;0.85;;
46318;SDS011;32042;50.916;2.926;2022-07-10T14:08:33;1.30;;;0.63;;
46318;SDS011;32042;50.916;2.926;2022-07-10T14:10:59;1.05;;;0.63;;
46318;SDS011;32042;50.916;2.926;2022-07-10T14:13:25;2.50;;;0.70;;
46318;SDS011;32042;50.916;2.926;2022-07-10T14:15:51;2.05;;;0.50;;
46318;SDS011;32042;50.916;2.926;2022-07-10T14:18:17;1.15;;;0.50;;
46318;SDS011;32042;50.916;2.926;2022-07-10T14:21:00;1.60;;;0.50;;
46318;SDS011;32042;50.916;2.926;2022-07-10T14:23:29;1.23;;;0.60;;
46318;SDS011;32042;50.916;2.926;2022-07-10T14:25:56;0.60;;;0.60;;
46318;SDS011;32042;50.916;2.926;2022-07-10T14:28:21;0.77;;;0.50;;
46318;SDS011;32042;50.916;2.926;2022-07-10T14:30:48;1.02;;;0.50;;
46318;SDS011;32042;50.916;2.926;2022-07-10T14:33:14;4.78;;;0.80;;
46318;SDS011;32042;50.916;2.926;2022-07-10T14:35:40;0.50;;;0.50;;
46318;SDS011;32042;50.916;2.926;2022-07-10T14:38:05;1.08;;;0.50;;
46318;SDS011;32042;50.916;2.926;2022-07-10T14:40:31;1.55;;;0.90;;
46318;SDS011;32042;50.916;2.926;2022-07-10T14:42:57;1.00;;;0.60;;
46318;SDS011;32042;50.916;2.926;2022-07-10T14:45:23;0.65;;;0.65;;
46318;SDS011;32042;50.916;2.926;2022-07-10T14:47:49;2.40;;;0.70;;
46318;SDS011;32042;50.916;2.926;2022-07-10T14:50:15;0.55;;;0.45;;
46318;SDS011;32042;50.916;2.926;2022-07-10T14:52:44;0.88;;;0.63;;
46318;SDS011;32042;50.916;2.926;2022-07-10T14:55:10;2.05;;;0.70;;
46318;SDS011;32042;50.916;2.926;2022-07-10T14:57:36;0.95;;;0.70;;
46318;SDS011;32042;50.916;2.926;2022-07-10T15:00:02;0.90;;;0.65;;
46318;SDS011;32042;50.916;2.926;2022-07-10T15:02:28;0.63;;;0.55;;
46318;SDS011;32042;50.916;2.926;2022-07-10T15:04:54;3.00;;;0.63;;
46318;SDS011;32042;50.916;2.926;2022-07-10T15:07:19;1.60;;;0.60;;
46318;SDS011;32042;50.916;2.926;2022-07-10T15:09:45;0.82;;;0.63;;
46318;SDS011;32042;50.916;2.926;2022-07-10T15:12:11;1.00;;;0.50;;
46318;SDS011;32042;50.916;2.926;2022-07-10T15:14:36;1.10;;;0.50;;
46318;SDS011;32042;50.916;2.926;2022-07-10T15:17:02;0.57;;;0.57;;
46318;SDS011;32042;50.916;2.926;2022-07-10T15:19:29;1.65;;;0.60;;
46318;SDS011;32042;50.916;2.926;2022-07-10T15:21:54;1.52;;;0.60;;
46318;SDS011;32042;50.916;2.926;2022-07-10T15:24:20;0.70;;;0.52;;
46318;SDS011;32042;50.916;2.926;2022-07-10T15:26:46;1.13;;;0.77;;
46318;SDS011;32042;50.916;2.926;2022-07-10T15:29:11;1.90;;;0.55;;